createdAt,value
2019-04-28T00:01:57.765Z,100620.29
2019-04-28T00:04:31.539Z,100618.48
2019-04-28T00:07:05.621Z,100620.19
2019-04-28T00:09:41.356Z,100621.48
2019-04-28T00:12:15.148Z,100616.20
2019-04-28T00:14:48.011Z,100624.13
2019-04-28T00:17:21.291Z,100628.48
2019-04-28T00:19:55.844Z,100624.47
2019-04-28T00:22:35.379Z,100631.46
2019-04-28T00:25:18.193Z,100624.85
2019-04-28T00:27:51.622Z,100623.52
2019-04-28T00:30:24.731Z,100629.64
2019-04-28T00:32:57.669Z,100627.02
2019-04-28T00:35:31.896Z,100629.25
2019-04-28T00:38:05.208Z,100625.75
2019-04-28T00:40:38.169Z,100620.07
2019-04-28T00:43:11.067Z,100614.82
2019-04-28T00:45:44.025Z,100612.64
2019-04-28T00:48:16.942Z,100610.47
2019-04-28T00:50:51.563Z,100617.92
2019-04-28T00:53:24.387Z,100621.39
2019-04-28T00:55:57.299Z,100627.50
2019-04-28T00:58:31.895Z,100624.40
2019-04-28T01:01:08.582Z,100622.67
2019-04-28T01:03:42.096Z,100617.44
2019-04-28T01:06:14.979Z,100612.64
2019-04-28T01:08:47.853Z,100613.94
2019-04-28T01:11:21.771Z,100616.17
2019-04-28T01:13:54.828Z,100618.34
2019-04-28T01:16:34.865Z,100615.75
2019-04-28T01:19:12.864Z,100614.45
2019-04-28T01:22:03.158Z,100615.76
2019-04-28T01:24:39.786Z,100614.88
2019-04-28T01:27:32.460Z,100614.89
2019-04-28T01:30:12.923Z,100614.91
2019-04-28T01:32:53.171Z,100619.31
2019-04-28T01:35:26.152Z,100611.88
2019-04-28T01:38:00.464Z,100614.09
2019-04-28T01:40:33.448Z,100610.58
2019-04-28T01:43:06.920Z,100614.57
2019-04-28T01:45:41.569Z,100614.61
2019-04-28T01:48:15.121Z,100620.33
2019-04-28T01:50:49.914Z,100615.04
2019-04-28T01:53:22.552Z,100624.69
2019-04-28T01:55:55.517Z,100616.72
2019-04-28T01:58:29.659Z,100611.88
2019-04-28T02:01:03.029Z,100618.45
2019-04-28T02:03:35.940Z,100612.70
2019-04-28T02:06:10.362Z,100613.19
2019-04-28T02:08:43.266Z,100621.94
2019-04-28T02:11:16.106Z,100617.53
2019-04-28T02:13:49.718Z,100617.55
2019-04-28T02:16:22.642Z,100620.64
2019-04-28T02:18:55.497Z,100626.38
2019-04-28T02:21:47.193Z,100623.73
2019-04-28T02:24:30.727Z,100617.60
2019-04-28T02:27:03.841Z,100622.41
2019-04-28T02:29:36.814Z,100623.31
2019-04-28T02:32:11.637Z,100624.69
2019-04-28T02:34:44.799Z,100625.12
2019-04-28T02:37:20.236Z,100629.02
2019-04-28T02:39:52.233Z,100632.53
2019-04-28T02:42:25.136Z,100629.44
2019-04-28T02:45:00.298Z,100634.25
2019-04-28T02:47:34.144Z,100629.84
2019-04-28T02:50:23.568Z,100626.33
2019-04-28T02:53:04.653Z,100631.62
2019-04-28T02:55:37.592Z,100631.62
2019-04-28T02:58:10.765Z,100634.70
2019-04-28T03:01:00.824Z,100633.37
2019-04-28T03:03:21.137Z,100633.85
2019-04-28T03:05:54.437Z,100637.85
2019-04-28T03:08:27.662Z,100639.64
2019-04-28T03:11:01.075Z,100642.27
2019-04-28T03:13:34.171Z,100645.77
2019-04-28T03:16:07.421Z,100647.99
2019-04-28T03:18:41.322Z,100646.66
2019-04-28T03:21:15.492Z,100650.61
2019-04-28T03:23:48.303Z,100647.97
2019-04-28T03:26:41.386Z,100648.41
2019-04-28T03:29:36.086Z,100646.20
2019-04-28T03:32:42.963Z,100646.20
2019-04-28T03:35:03.812Z,100657.60
2019-04-28T03:37:37.098Z,100657.62
2019-04-28T03:40:11.464Z,100662.86
2019-04-28T03:42:44.677Z,100658.50
2019-04-28T03:45:23.654Z,100662.42
2019-04-28T03:47:56.481Z,100662.41
2019-04-28T03:50:31.324Z,100668.56
2019-04-28T03:53:04.128Z,100667.67
2019-04-28T03:55:37.100Z,100669.39
2019-04-28T03:58:10.451Z,100670.68
2019-04-28T04:00:43.516Z,100677.70
2019-04-28T04:03:16.364Z,100682.06
2019-04-28T04:05:50.889Z,100685.14
2019-04-28T04:08:23.966Z,100686.02
2019-04-28T04:11:20.162Z,100688.16
2019-04-28T04:14:14.250Z,100692.55
2019-04-28T04:16:55.366Z,100694.30
2019-04-28T04:19:30.419Z,100696.49
2019-04-28T04:22:02.797Z,100699.09
2019-04-28T04:24:35.602Z,100699.54
2019-04-28T04:27:10.682Z,100702.66
2019-04-28T04:29:43.697Z,100710.55
2019-04-28T04:32:23.174Z,100703.55
2019-04-28T04:34:51.303Z,100706.61
2019-04-28T04:37:24.202Z,100712.28
2019-04-28T04:39:57.037Z,100713.20
2019-04-28T04:42:30.673Z,100709.70
2019-04-28T04:45:03.841Z,100711.05
2019-04-28T04:47:36.674Z,100723.31
2019-04-28T04:50:12.958Z,100721.56
2019-04-28T04:52:45.294Z,100732.98
2019-04-28T04:55:21.069Z,100733.00
2019-04-28T04:57:53.166Z,100733.52
2019-04-28T05:00:44.798Z,100743.20
2019-04-28T05:03:21.672Z,100744.08
2019-04-28T05:05:54.480Z,100754.23
2019-04-28T05:08:27.271Z,100758.61
2019-04-28T05:11:00.128Z,100759.92
2019-04-28T05:13:33.985Z,100757.31
2019-04-28T05:16:07.063Z,100766.55
2019-04-28T05:18:41.726Z,100768.73
2019-04-28T05:21:15.791Z,100769.22
2019-04-28T05:24:09.225Z,100763.52
2019-04-28T05:26:47.536Z,100771.03
2019-04-28T05:29:19.990Z,100773.23
2019-04-28T05:31:50.480Z,100776.75
2019-04-28T05:34:24.301Z,100771.95
2019-04-28T05:36:57.509Z,100781.67
2019-04-28T05:39:30.346Z,100776.86
2019-04-28T05:42:03.128Z,100779.95
2019-04-28T05:44:37.586Z,100783.05
2019-04-28T05:47:10.655Z,100780.01
2019-04-28T05:49:56.389Z,100774.30
2019-04-28T05:52:53.988Z,100774.31
2019-04-28T05:55:36.374Z,100781.78
2019-04-28T05:58:20.324Z,100785.75
2019-04-28T06:01:14.924Z,100794.54
2019-04-28T06:03:49.644Z,100794.55
2019-04-28T06:06:25.296Z,100802.89
2019-04-28T06:09:04.400Z,100800.27
2019-04-28T06:11:39.939Z,100806.41
2019-04-28T06:14:12.739Z,100802.02
2019-04-28T06:16:45.640Z,100809.11
2019-04-28T06:19:20.198Z,100807.34
2019-04-28T06:21:53.160Z,100808.22
2019-04-28T06:24:26.607Z,100813.02
2019-04-28T06:27:00.604Z,100810.34
2019-04-28T06:29:33.638Z,100808.55
2019-04-28T06:32:06.817Z,100814.70
2019-04-28T06:34:39.764Z,100812.88
2019-04-28T06:37:12.707Z,100814.19
2019-04-28T06:39:47.300Z,100816.80
2019-04-28T06:42:20.321Z,100816.78
2019-04-28T06:44:53.304Z,100818.98
2019-04-28T06:47:26.302Z,100826.47
2019-04-28T06:49:59.180Z,100823.41
2019-04-28T06:52:32.033Z,100827.35
2019-04-28T06:55:05.378Z,100829.14
2019-04-28T06:57:38.295Z,100833.11
2019-04-28T07:00:11.794Z,100827.79
2019-04-28T07:02:44.732Z,100827.82
2019-04-28T07:05:17.559Z,100830.91
2019-04-28T07:07:50.547Z,100831.34
2019-04-28T07:10:23.394Z,100827.87
2019-04-28T07:12:56.598Z,100825.69
2019-04-28T07:15:29.649Z,100826.59
2019-04-28T07:18:02.545Z,100831.89
2019-04-28T07:20:53.059Z,100835.84
2019-04-28T07:23:26.111Z,100835.36
2019-04-28T07:25:59.009Z,100840.64
2019-04-28T07:28:31.977Z,100841.06
2019-04-28T07:31:05.072Z,100848.97
2019-04-28T07:33:38.068Z,100854.26
2019-04-28T07:36:10.969Z,100854.70
2019-04-28T07:38:43.852Z,100864.84
2019-04-28T07:41:16.853Z,100867.48
2019-04-28T07:43:49.811Z,100870.56
2019-04-28T07:46:22.712Z,100871.91
2019-04-28T07:48:55.517Z,100884.66
2019-04-28T07:51:36.307Z,100879.83
2019-04-28T07:54:10.939Z,100881.17
2019-04-28T07:56:43.878Z,100880.28
2019-04-28T07:59:16.842Z,100886.02
2019-04-28T08:01:50.099Z,100885.16
2019-04-28T08:04:22.908Z,100896.16
2019-04-28T08:06:56.744Z,100893.94
2019-04-28T08:09:29.836Z,100904.95
2019-04-28T08:12:03.754Z,100900.12
2019-04-28T08:14:36.695Z,100904.97
2019-04-28T08:17:09.702Z,100901.44
2019-04-28T08:19:42.660Z,100897.02
2019-04-28T08:22:16.484Z,100900.98
2019-04-28T08:24:49.460Z,100909.32
2019-04-28T08:27:22.345Z,100909.77
2019-04-28T08:29:58.614Z,100914.19
2019-04-28T08:32:48.574Z,100914.58
2019-04-28T08:35:21.530Z,100918.52
2019-04-28T08:37:54.481Z,100922.51
2019-04-28T08:40:27.401Z,100929.61
2019-04-28T08:43:00.404Z,100932.23
2019-04-28T08:45:33.402Z,100936.61
2019-04-28T08:48:06.367Z,100930.91
2019-04-28T08:50:39.592Z,100937.53
2019-04-28T08:53:13.956Z,100937.53
2019-04-28T08:55:47.306Z,100939.30
2019-04-28T08:58:20.413Z,100934.91
2019-04-28T09:00:53.582Z,100942.39
2019-04-28T09:03:26.618Z,100943.27
2019-04-28T09:06:01.430Z,100940.61
2019-04-28T09:08:34.100Z,100952.92
2019-04-28T09:11:07.384Z,100953.37
2019-04-28T09:13:40.273Z,100952.05
2019-04-28T09:16:13.146Z,100948.98
2019-04-28T09:18:46.054Z,100944.57
2019-04-28T09:21:18.984Z,100949.37
2019-04-28T09:23:51.834Z,100944.06
2019-04-28T09:26:24.838Z,100951.12
2019-04-28T09:28:57.738Z,100948.86
2019-04-28T09:31:30.814Z,100946.19
2019-04-28T09:34:03.661Z,100950.13
2019-04-28T09:36:36.530Z,100949.65
2019-04-28T09:39:12.054Z,100952.27
2019-04-28T09:41:55.102Z,100950.46
2019-04-28T09:44:27.996Z,100942.04
2019-04-28T09:47:01.209Z,100947.70
2019-04-28T09:49:34.139Z,100950.75
2019-04-28T09:52:07.076Z,100952.33
2019-04-28T09:54:39.920Z,100946.95
2019-04-28T09:57:12.824Z,100948.67
2019-04-28T09:59:45.653Z,100945.09
2019-04-28T10:02:18.565Z,100950.00
2019-04-28T10:04:51.414Z,100947.30
2019-04-28T10:07:24.236Z,100948.19
2019-04-28T10:09:57.064Z,100946.06
2019-04-28T10:12:30.152Z,100947.80
2019-04-28T10:15:03.270Z,100945.58
2019-04-28T10:17:36.290Z,100953.14
2019-04-28T10:20:10.747Z,100946.41
2019-04-28T10:22:43.563Z,100953.97
2019-04-28T10:25:16.523Z,100958.00
2019-04-28T10:27:49.437Z,100953.14
2019-04-28T10:30:22.428Z,100962.89
2019-04-28T10:32:55.328Z,100966.91
2019-04-28T10:35:28.302Z,100962.50
2019-04-28T10:38:01.225Z,100962.94
2019-04-28T10:40:47.226Z,100955.42
2019-04-28T10:43:20.060Z,100960.62
2019-04-28T10:45:53.330Z,100960.16
2019-04-28T10:48:26.226Z,100959.23
2019-04-28T10:51:01.214Z,100962.65
2019-04-28T10:53:33.703Z,100963.97
2019-04-28T10:56:07.980Z,100961.27
2019-04-28T10:58:43.259Z,100959.98
2019-04-28T11:01:16.227Z,100964.30
2019-04-28T11:03:50.712Z,100959.05
2019-04-28T11:06:23.572Z,100964.73
2019-04-28T11:09:30.426Z,100960.95
2019-04-28T11:11:58.993Z,100961.76
2019-04-28T11:14:31.994Z,100965.54
2019-04-28T11:17:04.984Z,100964.77
2019-04-28T11:19:37.868Z,100969.34
2019-04-28T11:22:12.072Z,100968.08
2019-04-28T11:24:45.189Z,100973.77
2019-04-28T11:27:19.916Z,100967.59
2019-04-28T11:29:52.826Z,100976.16
2019-04-28T11:32:25.901Z,100982.31
2019-04-28T11:35:21.939Z,100971.76
2019-04-28T11:37:53.940Z,100977.11
2019-04-28T11:40:26.896Z,100985.53
2019-04-28T11:43:00.763Z,100989.06
2019-04-28T11:45:33.777Z,100988.29
2019-04-28T11:48:06.691Z,100988.73
2019-04-28T11:50:39.542Z,100983.86
2019-04-28T11:53:12.454Z,100983.42
2019-04-28T11:55:45.395Z,100985.08
2019-04-28T11:58:18.240Z,100980.31
2019-04-28T12:00:51.130Z,100985.13
2019-04-28T12:03:23.936Z,100989.09
2019-04-28T12:05:56.773Z,100987.34
2019-04-28T12:08:29.682Z,100990.75
2019-04-28T12:11:13.437Z,100993.68
2019-04-28T12:14:11.526Z,100992.84
2019-04-28T12:17:01.855Z,100989.81
2019-04-28T12:19:42.513Z,100998.64
2019-04-28T12:22:15.314Z,100996.44
2019-04-28T12:24:48.165Z,100991.52
2019-04-28T12:27:21.098Z,100996.44
2019-04-28T12:29:54.024Z,100997.38
2019-04-28T12:32:26.825Z,100996.83
2019-04-28T12:34:59.626Z,100996.50
2019-04-28T12:37:32.420Z,100996.87
2019-04-28T12:40:05.699Z,100993.35
2019-04-28T12:42:38.891Z,100994.62
2019-04-28T12:45:11.912Z,100997.70
2019-04-28T12:47:45.876Z,101002.63
2019-04-28T12:50:42.220Z,100992.58
2019-04-28T12:53:15.087Z,101002.20
2019-04-28T12:55:47.967Z,100992.02
2019-04-28T12:58:20.767Z,100992.86
2019-04-28T13:01:15.549Z,100991.52
2019-04-28T13:04:05.233Z,100993.22
2019-04-28T13:06:38.143Z,100988.80
2019-04-28T13:09:11.102Z,100987.52
2019-04-28T13:11:45.816Z,100993.86
2019-04-28T13:14:18.692Z,100994.73
2019-04-28T13:16:51.507Z,100995.23
2019-04-28T13:19:24.486Z,100987.67
2019-04-28T13:21:57.264Z,100992.52
2019-04-28T13:24:30.097Z,100996.39
2019-04-28T13:27:03.886Z,100991.12
2019-04-28T13:29:36.723Z,100989.80
2019-04-28T13:32:09.598Z,100988.05
2019-04-28T13:34:42.645Z,100992.09
2019-04-28T13:37:15.495Z,100988.27
2019-04-28T13:40:13.224Z,100986.18
2019-04-28T13:42:46.267Z,100988.83
2019-04-28T13:45:21.716Z,100988.27
2019-04-28T13:47:54.506Z,100979.11
2019-04-28T13:50:38.132Z,100987.99
2019-04-28T13:53:11.151Z,100973.53
2019-04-28T13:56:00.782Z,100992.03
2019-04-28T13:58:52.554Z,100989.37
2019-04-28T14:02:02.477Z,100988.05
2019-04-28T14:04:43.656Z,100990.76
2019-04-28T14:07:16.451Z,100994.81
2019-04-28T14:09:49.443Z,100990.03
2019-04-28T14:12:22.346Z,100992.25
2019-04-28T14:14:55.298Z,100990.92
2019-04-28T14:17:28.158Z,100989.59
2019-04-28T14:20:01.055Z,100987.83
2019-04-28T14:22:33.987Z,100992.21
2019-04-28T14:25:07.234Z,100985.11
2019-04-28T14:27:40.086Z,100987.31
2019-04-28T14:30:13.227Z,100988.23
2019-04-28T14:32:46.117Z,100990.03
2019-04-28T14:35:18.937Z,100992.69
2019-04-28T14:37:51.852Z,100994.02
2019-04-28T14:40:24.728Z,100994.02
2019-04-28T14:42:57.683Z,100997.98
2019-04-28T14:45:30.554Z,100995.78
2019-04-28T14:48:03.949Z,100993.13
2019-04-28T14:50:36.938Z,100994.49
2019-04-28T14:53:09.840Z,100993.64
2019-04-28T14:55:42.871Z,100997.62
2019-04-28T14:58:15.851Z,100996.73
2019-04-28T15:00:53.609Z,100997.62
2019-04-28T15:03:27.824Z,100994.53
2019-04-28T15:06:15.941Z,101000.33
2019-04-28T15:08:59.762Z,100998.12
2019-04-28T15:11:45.597Z,101000.39
2019-04-28T15:14:18.448Z,101002.19
2019-04-28T15:16:51.385Z,100996.48
2019-04-28T15:19:24.162Z,101009.27
2019-04-28T15:21:56.986Z,101008.41
2019-04-28T15:24:30.517Z,101009.31
2019-04-28T15:27:03.349Z,101009.74
2019-04-28T15:29:36.367Z,101009.77
2019-04-28T15:32:09.726Z,101016.37
2019-04-28T15:34:43.040Z,101022.56
2019-04-28T15:37:15.907Z,101015.53
2019-04-28T15:39:50.082Z,101016.39
2019-04-28T15:42:22.971Z,101023.04
2019-04-28T15:44:56.304Z,101030.08
2019-04-28T15:47:29.216Z,101028.34
2019-04-28T15:50:02.183Z,101029.18
2019-04-28T15:52:35.008Z,101029.63
2019-04-28T15:55:09.718Z,101034.92
2019-04-28T15:57:42.738Z,101032.27
2019-04-28T16:00:17.023Z,101035.38
2019-04-28T16:02:50.012Z,101041.55
2019-04-28T16:05:22.884Z,101042.44
2019-04-28T16:07:55.837Z,101043.33
2019-04-28T16:10:28.688Z,101043.33
2019-04-28T16:13:01.906Z,101038.47
2019-04-28T16:15:34.802Z,101037.16
2019-04-28T16:18:07.762Z,101035.84
2019-04-28T16:20:41.655Z,101043.77
2019-04-28T16:23:14.674Z,101042.90
2019-04-28T16:25:47.555Z,101038.92
2019-04-28T16:28:20.403Z,101041.10
2019-04-28T16:30:53.653Z,101037.16
2019-04-28T16:33:26.567Z,101036.72
2019-04-28T16:35:59.483Z,101039.34
2019-04-28T16:38:32.417Z,101045.50
2019-04-28T16:41:09.921Z,101040.64
2019-04-28T16:43:55.469Z,101042.84
2019-04-28T16:46:28.491Z,101036.67
2019-04-28T16:49:01.447Z,101039.31
2019-04-28T16:51:34.336Z,101039.75
2019-04-28T16:54:07.341Z,101040.17
2019-04-28T16:57:07.838Z,101048.55
2019-04-28T17:00:11.544Z,101042.38
2019-04-28T17:02:52.800Z,101044.98
2019-04-28T17:05:25.721Z,101043.66
2019-04-28T17:07:58.595Z,101041.89
2019-04-28T17:10:31.543Z,101044.08
2019-04-28T17:13:04.416Z,101047.62
2019-04-28T17:15:37.459Z,101048.91
2019-04-28T17:18:10.677Z,101053.31
2019-04-28T17:20:43.687Z,101049.38
2019-04-28T17:23:16.708Z,101055.09
2019-04-28T17:25:49.760Z,101054.19
2019-04-28T17:28:22.817Z,101059.45
2019-04-28T17:30:57.757Z,101047.13
2019-04-28T17:33:30.591Z,101048.86
2019-04-28T17:36:03.567Z,101060.31
2019-04-28T17:38:37.933Z,101060.33
2019-04-28T17:41:11.148Z,101061.20
2019-04-28T17:43:44.049Z,101060.73
2019-04-28T17:46:17.118Z,101064.27
2019-04-28T17:48:55.266Z,101065.07
2019-04-28T17:51:28.150Z,101064.64
2019-04-28T17:54:01.215Z,101063.73
2019-04-28T17:56:34.120Z,101065.91
2019-04-28T17:59:07.310Z,101077.81
2019-04-28T18:01:57.802Z,101078.67
2019-04-28T18:04:51.016Z,101081.73
2019-04-28T18:07:30.326Z,101080.84
2019-04-28T18:10:05.282Z,101078.65
2019-04-28T18:12:38.248Z,101086.55
2019-04-28T18:15:40.136Z,101089.62
2019-04-28T18:18:27.732Z,101084.80
2019-04-28T18:21:00.650Z,101097.12
2019-04-28T18:23:33.684Z,101100.16
2019-04-28T18:26:06.696Z,101094.00
2019-04-28T18:28:39.646Z,101103.68
2019-04-28T18:31:37.479Z,101091.72
2019-04-28T18:34:44.477Z,101108.03
2019-04-28T18:37:42.364Z,101105.84
2019-04-28T18:40:47.348Z,101108.92
2019-04-28T18:43:45.438Z,101108.45
2019-04-28T18:46:22.881Z,101116.33
2019-04-28T18:48:55.974Z,101114.13
2019-04-28T18:51:29.680Z,101120.72
2019-04-28T18:54:03.215Z,101112.78
2019-04-28T18:56:37.870Z,101125.97
2019-04-28T18:59:12.417Z,101122.02
2019-04-28T19:01:51.734Z,101123.78
2019-04-28T19:04:25.048Z,101122.45
2019-04-28T19:07:05.529Z,101130.36
2019-04-28T19:10:00.532Z,101125.95
2019-04-28T19:12:41.840Z,101123.77
2019-04-28T19:15:32.765Z,101129.49
2019-04-28T19:18:13.353Z,101130.80
2019-04-28T19:20:47.382Z,101126.84
2019-04-28T19:23:20.321Z,101121.09
2019-04-28T19:25:53.563Z,101128.12
2019-04-28T19:28:29.292Z,101117.52
2019-04-28T19:31:03.749Z,101124.56
2019-04-28T19:33:56.028Z,101118.84
2019-04-28T19:36:34.533Z,101119.66
2019-04-28T19:39:09.215Z,101115.27
2019-04-28T19:41:43.953Z,101118.81
2019-04-28T19:44:18.917Z,101114.81
2019-04-28T19:46:54.771Z,101113.93
2019-04-28T19:49:35.403Z,101118.31
2019-04-28T19:52:18.535Z,101120.05
2019-04-28T19:55:07.941Z,101118.74
2019-04-28T19:57:56.542Z,101114.75
2019-04-28T20:00:42.366Z,101118.20
2019-04-28T20:03:17.172Z,101116.47
2019-04-28T20:05:50.523Z,101110.29
2019-04-28T20:08:27.494Z,101113.81
2019-04-28T20:11:00.511Z,101109.38
2019-04-28T20:13:34.950Z,101107.62
2019-04-28T20:16:10.478Z,101104.96
2019-04-28T20:18:43.792Z,101100.09
2019-04-28T20:21:16.966Z,101095.69
2019-04-28T20:23:53.454Z,101104.05
2019-04-28T20:26:29.407Z,101097.41
2019-04-28T20:29:02.861Z,101103.57
2019-04-28T20:31:38.030Z,101097.45
2019-04-28T20:34:11.092Z,101100.09
2019-04-28T20:36:59.621Z,101100.95
2019-04-28T20:39:38.932Z,101104.02
2019-04-28T20:42:29.380Z,101100.48
2019-04-28T20:45:03.767Z,101096.51
2019-04-28T20:47:36.971Z,101100.03
2019-04-28T20:50:10.011Z,101100.91
2019-04-28T20:52:43.370Z,101101.78
2019-04-28T20:55:16.276Z,101100.05
2019-04-28T20:57:49.321Z,101096.55
2019-04-28T21:00:22.380Z,101100.95
2019-04-28T21:02:55.331Z,101098.32
2019-04-28T21:05:28.416Z,101100.48
2019-04-28T21:08:01.531Z,101096.51
2019-04-28T21:10:38.305Z,101093.43
2019-04-28T21:13:09.236Z,101088.55
2019-04-28T21:15:42.103Z,101087.63
2019-04-28T21:18:15.090Z,101082.36
2019-04-28T21:20:51.167Z,101089.81
2019-04-28T21:23:24.080Z,101087.62
2019-04-28T21:25:57.129Z,101084.08
2019-04-28T21:28:30.048Z,101080.97
2019-04-28T21:31:03.045Z,101087.62
2019-04-28T21:33:35.964Z,101084.50
2019-04-28T21:36:08.959Z,101078.77
2019-04-28T21:38:41.879Z,101078.77
2019-04-28T21:41:15.681Z,101078.77
2019-04-28T21:44:04.636Z,101078.77
2019-04-28T21:46:57.650Z,101078.34
2019-04-28T21:49:32.568Z,101073.94
2019-04-28T21:52:05.723Z,101077.00
2019-04-28T21:54:38.697Z,101071.75
2019-04-28T21:57:11.644Z,101073.94
2019-04-28T21:59:44.673Z,101069.98
2019-04-28T22:02:17.863Z,101072.62
2019-04-28T22:04:50.812Z,101070.44
2019-04-28T22:07:23.777Z,101058.13
2019-04-28T22:09:56.655Z,101052.84
2019-04-28T22:12:29.629Z,101051.09
2019-04-28T22:15:02.599Z,101043.62
2019-04-28T22:17:35.657Z,101042.28
2019-04-28T22:20:08.773Z,101045.36
2019-04-28T22:22:41.840Z,101035.69
2019-04-28T22:25:18.962Z,101036.98
2019-04-28T22:27:51.787Z,101038.31
2019-04-28T22:30:24.689Z,101042.25
2019-04-28T22:32:57.702Z,101037.02
2019-04-28T22:35:30.585Z,101040.08
2019-04-28T22:38:03.593Z,101038.78
2019-04-28T22:40:36.508Z,101031.73
2019-04-28T22:43:09.486Z,101032.65
2019-04-28T22:45:42.539Z,101033.97
2019-04-28T22:48:17.416Z,101027.81
2019-04-28T22:50:50.723Z,101040.53
2019-04-28T22:53:28.711Z,101034.42
2019-04-28T22:56:09.992Z,101031.78
2019-04-28T22:58:53.487Z,101034.44
2019-04-28T23:01:46.978Z,101034.85
2019-04-28T23:04:34.472Z,101033.55
2019-04-28T23:07:07.909Z,101030.92
2019-04-28T23:09:40.848Z,101024.75
2019-04-28T23:12:13.955Z,101012.90
2019-04-28T23:14:47.023Z,101008.53
2019-04-28T23:17:20.836Z,101015.59
2019-04-28T23:19:53.846Z,101008.12
2019-04-28T23:22:46.952Z,101008.99
2019-04-28T23:25:18.121Z,101001.99
2019-04-28T23:27:51.060Z,100998.52
2019-04-28T23:30:40.948Z,100994.59
2019-04-28T23:33:13.893Z,100991.05
2019-04-28T23:35:46.821Z,100980.94
2019-04-28T23:38:19.687Z,100978.32
2019-04-28T23:41:23.684Z,100963.38
2019-04-28T23:43:56.612Z,100960.74
2019-04-28T23:46:48.292Z,100950.66
2019-04-28T23:49:21.298Z,100949.75
2019-04-28T23:52:03.829Z,100941.87
2019-04-28T23:54:38.443Z,100942.30
2019-04-28T23:57:12.328Z,100947.11
2019-04-28T23:59:45.376Z,100941.41
